Česky Dansk Deutsch English Español Suomi Français Magyar Italiano Nederlands norsk Polski Português svenska Türkçe

 

Het Weer

Zell Am See (Oostenrijk)

06:00, 21 augustus 2016 (GMT)

NWNNE
WE
SWSSE
Home            
Zell Am See Salzburg-Flughafen Dobbiaco Schwaz Heliport Aigen Im Ennstal Tarvisio Innsbruck-Flughafen Erding Passo Rolle Wels Klagenfurt-Flughafen Munchen Aviano Usaf Aviano Oberpfaffenhofen Udine / Campoformido Bolzano Udine / Rivolto Linz / Hoersching-Flughafen Horsching Aus-Afb Zeltweg Fuerstenfeldbruck Altenstadt

Om een weerknop op uw website of weblog te plaatsen, copieer onderstaande code en plak die in uw pagina. In het eerste vakje staat HTML-code, in het tweede vakje UBB-code.


Add to Google

Details

Wind speed:1 bf, 2 kn, 1.0 m/s, 2.3 miles/h, 3.7 km/h
Wind direction:Variable
Het Weer:light rain
Temperature:15°C, 59°F
Dew-point:13°C, 55°F
Atmospheric pressure:1021 hPa, 765.8 mmHg, 30.15 inHg, 1.008 atm
Relative humidity:87.8 %
METAR:LOWZ 210600Z VRB02KT 30KM -RA SCT020SC OVC060SC 15/13 Q1021 RMK OVC

Snelkoppelingen

Actuele weersinformatie van de hele wereld. Voeg locaties toe met het plus (+) symbool. Deze snelkoppelingen kunnen worden toegevoegd aan Google.

Lid van de Technetium groep

website free tracking
StatCounter NetStat W3C Validator

19-05-2022 05:09:03
astro.technetium.be money.technetium.be phote.technetium.be tafeltennistafel.technetium.be www.ligfiets.net